createdAt,value
2022-10-09T00:09:21.807Z,7.9
2022-10-09T00:39:39.754Z,7.5
2022-10-09T01:09:57.774Z,7.25
2022-10-09T01:40:13.997Z,6.95
2022-10-09T02:10:32.770Z,6.75
2022-10-09T02:40:50.963Z,6.35
2022-10-09T03:11:07.546Z,6
2022-10-09T03:41:25.680Z,5.9
2022-10-09T04:11:43.641Z,5.55
2022-10-09T04:42:01.682Z,5.35
2022-10-09T05:12:19.998Z,5.55
2022-10-09T05:42:39.144Z,5.45
2022-10-09T06:12:59.284Z,7.6
2022-10-09T06:43:24.907Z,10.65
2022-10-09T07:13:52.462Z,14.2
2022-10-09T07:44:17.639Z,16.9
2022-10-09T08:14:44.920Z,17.85
2022-10-09T08:45:07.977Z,20.6
2022-10-09T09:15:30.151Z,21.75
2022-10-09T09:45:51.942Z,21.55
2022-10-09T10:16:13.181Z,21.3
2022-10-09T10:46:32.271Z,23.3
2022-10-09T11:16:52.496Z,23.85
2022-10-09T11:47:11.469Z,24.05
2022-10-09T12:17:21.963Z,18.1
2022-10-09T12:47:23.809Z,16.45
2022-10-09T13:17:39.010Z,16.25
2022-10-09T13:47:57.416Z,16
2022-10-09T14:18:15.653Z,15.9
2022-10-09T14:48:34.659Z,15.8
2022-10-09T15:18:54.364Z,15.65
2022-10-09T15:49:13.358Z,15.55
2022-10-09T16:19:31.834Z,15.15
2022-10-09T16:49:52.148Z,14.75
2022-10-09T17:20:09.731Z,14.15
2022-10-09T17:50:25.672Z,13.6
2022-10-09T18:20:44.775Z,13
2022-10-09T18:51:02.268Z,12.55
2022-10-09T19:21:19.728Z,11.95
2022-10-09T19:51:38.144Z,11.75
2022-10-09T20:21:56.176Z,11.6
2022-10-09T20:52:13.667Z,11.3
2022-10-09T21:22:31.231Z,10.7
2022-10-09T21:52:48.639Z,10.2
2022-10-09T22:23:08.892Z,9.35
2022-10-09T22:53:26.343Z,8.95
2022-10-09T23:23:44.786Z,8.25
2022-10-09T23:54:02.406Z,7.95
